Terminal Aerodrome Forecast
Issued by NWS

Home | Current Version | Previous Version | Text Only | Print | Product List | Glossary On
Versions: 1 2 3 4 5 6 7 8 9 10 11 12 13 14 15 16 17 18 19 20
000
FTUS44 KOUN 250530
TAFCSM
TAF
KCSM 250530Z 2506/2606 16009KT P6SM SCT070 BKN120 PROB30 2521/2603
      3SM -TSRA BKN050CB BKN120=

USA.gov is the U.S. government's official web portal to all federal, state and local government web resources and services.